Time;durP1;ratioP1;P1;durP2;ratioP2;P2;SDS_P1;SDS_P2;PMS_P1;PMS_P2;Temp;Humidity;BMP_temperature;BMP_pressure;BME280_temperature;BME280_humidity;BME280_pressure;Samples;Min_cycle;Max_cycle;Signal;HPM_P1;HPM_P2
2021/08/02 00:00:22;;;;;;;4.90;2.55;;;;;;;;;;5010124;28;20052;-60
2021/08/02 00:02:50;;;;;;;4.88;2.92;;;;;;;;;;5010215;28;20029;-61
2021/08/02 00:05:17;;;;;;;2.92;2.42;;;;;;;;;;5011132;28;20084;-61
2021/08/02 00:07:45;;;;;;;3.28;2.92;;;;;;;;;;5010048;28;20534;-60
2021/08/02 00:10:15;;;;;;;3.65;2.40;;;;;;;;;;5011578;28;20484;-61
2021/08/02 00:12:47;;;;;;;3.15;2.65;;;;;;;;;;5009884;28;20033;-61
2021/08/02 00:15:14;;;;;;;4.53;2.60;;;;;;;;;;5011850;28;20505;-61
2021/08/02 00:17:44;;;;;;;5.38;2.60;;;;;;;;;;5011245;28;20068;-61
2021/08/02 00:20:16;;;;;;;6.78;2.90;;;;;;;;;;5009964;28;20021;-60
2021/08/02 00:22:43;;;;;;;3.95;2.50;;;;;;;;;;5011132;28;20026;-60
2021/08/02 00:25:10;;;;;;;4.55;2.83;;;;;;;;;;5011079;28;20037;-60
2021/08/02 00:27:35;;;;;;;4.70;2.70;;;;;;;;;;5010316;28;20041;-60
2021/08/02 00:30:01;;;;;;;5.03;2.80;;;;;;;;;;5010643;28;21414;-60
2021/08/02 00:32:27;;;;;;;3.78;2.60;;;;;;;;;;5010512;28;20037;-61
2021/08/02 00:34:52;;;;;;;6.22;2.70;;;;;;;;;;5011375;28;20052;-61
2021/08/02 00:37:24;;;;;;;4.38;2.70;;;;;;;;;;5009649;28;20068;-61
2021/08/02 00:40:01;;;;;;;5.18;2.33;;;;;;;;;;5002369;28;20025;-61
2021/08/02 00:42:44;;;;;;;6.60;2.60;;;;;;;;;;5010328;28;20044;-61
2021/08/02 00:45:22;;;;;;;5.07;2.55;;;;;;;;;;5006398;28;20033;-61
2021/08/02 00:48:06;;;;;;;6.03;3.03;;;;;;;;;;5008977;28;20114;-60
2021/08/02 00:50:42;;;;;;;2.78;2.25;;;;;;;;;;5009147;28;20026;-61
2021/08/02 00:53:11;;;;;;;4.28;2.55;;;;;;;;;;5009021;28;20504;-61
2021/08/02 00:55:41;;;;;;;;;;;;;;;;;;5011461;28;20373;-60
2021/08/02 00:58:08;;;;;;;;;;;;;;;;;;5009378;28;20171;-60
2021/08/02 01:00:34;;;;;;;3.10;2.22;;;;;;;;;;5010665;28;20011;-60
2021/08/02 01:03:05;;;;;;;4.65;2.50;;;;;;;;;;5008649;28;20451;-60
2021/08/02 01:05:33;;;;;;;3.67;2.17;;;;;;;;;;5010341;28;20384;-60
2021/08/02 01:08:03;;;;;;;4.43;2.30;;;;;;;;;;5009919;28;20503;-60
2021/08/02 01:10:32;;;;;;;5.80;2.63;;;;;;;;;;5009974;28;20042;-61
2021/08/02 01:13:00;;;;;;;4.90;2.75;;;;;;;;;;5008512;28;20389;-60
2021/08/02 01:15:27;;;;;;;3.00;2.28;;;;;;;;;;5008280;28;20373;-60
2021/08/02 01:17:55;;;;;;;2.92;2.20;;;;;;;;;;5007906;28;20480;-60
2021/08/02 01:20:21;;;;;;;3.70;2.25;;;;;;;;;;5010627;28;20034;-60
2021/08/02 01:22:48;;;;;;;4.05;2.38;;;;;;;;;;5007393;28;20030;-60
2021/08/02 01:25:38;;;;;;;4.60;2.40;;;;;;;;;;5010589;28;20025;-60
2021/08/02 01:28:13;;;;;;;3.65;3.17;;;;;;;;;;5009731;28;20022;-59
2021/08/02 01:30:39;;;;;;;3.03;2.75;;;;;;;;;;5010616;28;20029;-62
2021/08/02 01:33:04;;;;;;;5.40;2.53;;;;;;;;;;5009079;28;20112;-60
2021/08/02 01:35:30;;;;;;;3.78;2.22;;;;;;;;;;5010780;28;20112;-60
2021/08/02 01:37:56;;;;;;;5.38;2.50;;;;;;;;;;5009527;28;20064;-60
2021/08/02 01:40:22;;;;;;;4.70;2.33;;;;;;;;;;5010109;28;20038;-60
2021/08/02 01:42:47;;;;;;;4.38;2.35;;;;;;;;;;5009721;28;20037;-60
2021/08/02 01:45:13;;;;;;;3.92;2.28;;;;;;;;;;5008309;28;20095;-60
2021/08/02 01:47:49;;;;;;;3.80;2.33;;;;;;;;;;5008832;28;20087;-59
2021/08/02 01:50:39;;;;;;;5.28;2.10;;;;;;;;;;5004775;28;20032;-60
2021/08/02 01:53:18;;;;;;;2.67;2.30;;;;;;;;;;5003145;28;20025;-60
2021/08/02 01:55:51;;;;;;;3.72;2.50;;;;;;;;;;5023586;28;20088;-60
2021/08/02 01:58:17;;;;;;;3.00;2.35;;;;;;;;;;5008713;28;20068;-61
2021/08/02 02:00:46;;;;;;;3.22;2.15;;;;;;;;;;5005678;28;20061;-61
2021/08/02 02:03:15;;;;;;;3.00;2.17;;;;;;;;;;5009155;28;20030;-60
2021/08/02 02:05:56;;;;;;;3.92;2.53;;;;;;;;;;5005897;28;20121;-60
2021/08/02 02:08:37;;;;;;;2.88;2.40;;;;;;;;;;5008506;28;20041;-60
2021/08/02 02:11:04;;;;;;;3.20;2.40;;;;;;;;;;5003322;28;20108;-60
2021/08/02 02:13:33;;;;;;;5.47;2.50;;;;;;;;;;5009262;28;20395;-60
2021/08/02 02:16:00;;;;;;;3.95;2.50;;;;;;;;;;5008377;28;20026;-60
2021/08/02 02:18:27;;;;;;;7.60;2.35;;;;;;;;;;5008832;28;20512;-60
2021/08/02 02:20:54;;;;;;;4.13;2.50;;;;;;;;;;5009757;28;20026;-60
2021/08/02 02:23:20;;;;;;;3.50;2.50;;;;;;;;;;5007934;28;20026;-60
2021/08/02 02:25:47;;;;;;;3.97;2.60;;;;;;;;;;5008724;28;20030;-60
2021/08/02 02:28:13;;;;;;;4.53;2.60;;;;;;;;;;5008811;28;20030;-60
2021/08/02 02:30:40;;;;;;;3.65;2.13;;;;;;;;;;5009100;28;20092;-60
2021/08/02 02:33:07;;;;;;;3.63;2.75;;;;;;;;;;5007548;28;20034;-60
2021/08/02 02:35:33;;;;;;;4.32;2.70;;;;;;;;;;5007991;28;20109;-60
2021/08/02 02:37:59;;;;;;;4.57;2.60;;;;;;;;;;5009096;28;20116;-60
2021/08/02 02:40:25;;;;;;;3.67;2.60;;;;;;;;;;5009164;28;20446;-60
2021/08/02 02:42:50;;;;;;;4.45;2.78;;;;;;;;;;5008392;28;20257;-60
2021/08/02 02:45:16;;;;;;;4.35;2.80;;;;;;;;;;5009527;28;20033;-60
2021/08/02 02:47:44;;;;;;;4.45;2.63;;;;;;;;;;5008018;28;20022;-60
2021/08/02 02:50:10;;;;;;;3.75;2.50;;;;;;;;;;5008876;28;20196;-60
2021/08/02 02:52:36;;;;;;;3.15;2.58;;;;;;;;;;5006695;28;20456;-60
2021/08/02 02:55:02;;;;;;;4.28;2.75;;;;;;;;;;5009533;28;20029;-60
2021/08/02 02:57:28;;;;;;;2.78;2.45;;;;;;;;;;5010387;28;20349;-60
2021/08/02 02:59:54;;;;;;;3.70;2.70;;;;;;;;;;5012494;28;20045;-60
2021/08/02 03:02:21;;;;;;;6.85;2.92;;;;;;;;;;5012272;28;20055;-60
2021/08/02 03:04:51;;;;;;;3.00;2.50;;;;;;;;;;5012888;28;20165;-60
2021/08/02 03:07:17;;;;;;;;;;;;;;;;;;5013207;28;20053;-60
2021/08/02 03:09:45;;;;;;;5.47;2.60;;;;;;;;;;5013515;28;19924;-60
2021/08/02 03:12:11;;;;;;;6.53;2.70;;;;;;;;;;5026862;28;20073;-60
2021/08/02 03:14:37;;;;;;;6.38;3.20;;;;;;;;;;5013229;28;20473;-60
2021/08/02 03:17:06;;;;;;;4.22;3.83;;;;;;;;;;5012626;28;20045;-60
2021/08/02 03:19:31;;;;;;;5.85;3.85;;;;;;;;;;5012096;28;20078;-60
2021/08/02 03:21:59;;;;;;;5.25;2.78;;;;;;;;;;5012208;28;20040;-60
2021/08/02 03:24:30;;;;;;;3.88;2.50;;;;;;;;;;5012684;28;20152;-60
2021/08/02 03:27:04;;;;;;;4.65;2.78;;;;;;;;;;5012541;28;20406;-60
2021/08/02 03:29:34;;;;;;;3.28;2.45;;;;;;;;;;5011074;28;20068;-60
2021/08/02 03:32:08;;;;;;;2.90;2.60;;;;;;;;;;5016495;28;20457;-60
2021/08/02 03:34:35;;;;;;;3.10;2.40;;;;;;;;;;5010108;28;20036;-60
2021/08/02 03:37:04;;;;;;;3.53;2.63;;;;;;;;;;5011149;28;20152;-60
2021/08/02 03:39:31;;;;;;;3.28;2.63;;;;;;;;;;5011562;28;20033;-60
2021/08/02 03:41:57;;;;;;;4.40;2.92;;;;;;;;;;5012105;28;20034;-60
2021/08/02 03:44:25;;;;;;;4.82;3.00;;;;;;;;;;5009983;28;20124;-60
2021/08/02 03:46:51;;;;;;;3.72;2.90;;;;;;;;;;5011800;28;20034;-60
2021/08/02 03:49:17;;;;;;;3.22;2.60;;;;;;;;;;5010646;28;20558;-60
2021/08/02 03:51:48;;;;;;;6.75;2.83;;;;;;;;;;5011513;28;20034;-60
2021/08/02 03:54:15;;;;;;;3.70;3.00;;;;;;;;;;5011610;28;20025;-60
2021/08/02 03:56:42;;;;;;;4.25;3.17;;;;;;;;;;5012102;28;20036;-60
2021/08/02 03:59:07;;;;;;;3.65;3.13;;;;;;;;;;5011382;28;20029;-60
2021/08/02 04:01:43;;;;;;;4.32;3.00;;;;;;;;;;5007916;28;20038;-59
2021/08/02 04:04:09;;;;;;;5.53;3.03;;;;;;;;;;5012162;28;20523;-60
2021/08/02 04:06:36;;;;;;;4.07;2.58;;;;;;;;;;5010604;28;20026;-60
2021/08/02 04:09:03;;;;;;;4.47;2.80;;;;;;;;;;5004765;28;20030;-59
2021/08/02 04:11:29;;;;;;;4.07;2.58;;;;;;;;;;5009870;28;20038;-61
2021/08/02 04:13:54;;;;;;;3.28;2.97;;;;;;;;;;5011748;28;20030;-60
2021/08/02 04:16:20;;;;;;;4.15;2.70;;;;;;;;;;5011288;28;20030;-62
2021/08/02 04:18:45;;;;;;;4.22;2.78;;;;;;;;;;5004908;28;20408;-61
2021/08/02 04:21:11;;;;;;;5.22;3.20;;;;;;;;;;5011508;28;20054;-62
2021/08/02 04:23:36;;;;;;;3.35;2.40;;;;;;;;;;5011223;28;20029;-62
2021/08/02 04:26:02;;;;;;;3.53;2.58;;;;;;;;;;5010677;28;20018;-62
2021/08/02 04:28:27;;;;;;;4.85;2.70;;;;;;;;;;5010896;28;20056;-62
2021/08/02 04:30:52;;;;;;;4.50;2.58;;;;;;;;;;5011415;28;20026;-61
2021/08/02 04:33:18;;;;;;;6.53;3.17;;;;;;;;;;5010751;28;20022;-62
2021/08/02 04:35:44;;;;;;;5.43;3.08;;;;;;;;;;5011023;28;20520;-62
2021/08/02 04:38:10;;;;;;;3.20;2.45;;;;;;;;;;5010563;28;20056;-62
2021/08/02 04:40:36;;;;;;;6.30;2.83;;;;;;;;;;5009303;28;20038;-62
2021/08/02 04:43:01;;;;;;;4.10;2.70;;;;;;;;;;5003881;28;20447;-62
2021/08/02 04:45:27;;;;;;;6.35;3.20;;;;;;;;;;5010383;28;20026;-62
2021/08/02 04:47:52;;;;;;;3.85;2.67;;;;;;;;;;5010049;28;20370;-61
2021/08/02 04:50:18;;;;;;;2.83;2.53;;;;;;;;;;5011097;28;20037;-62
2021/08/02 04:52:44;;;;;;;3.25;2.50;;;;;;;;;;5007983;28;20029;-61
2021/08/02 04:55:10;;;;;;;3.58;2.70;;;;;;;;;;5009941;28;20034;-62
2021/08/02 04:57:36;;;;;;;3.83;2.95;;;;;;;;;;5010757;28;20091;-61
2021/08/02 05:00:04;;;;;;;4.55;3.30;;;;;;;;;;5008948;28;20029;-61
2021/08/02 05:02:29;;;;;;;6.95;4.50;;;;;;;;;;5010099;28;20052;-61
2021/08/02 05:04:55;;;;;;;5.72;3.25;;;;;;;;;;5010824;28;20505;-61
2021/08/02 05:07:21;;;;;;;4.80;3.30;;;;;;;;;;5010095;28;20030;-61
2021/08/02 05:09:46;;;;;;;8.00;5.28;;;;;;;;;;5009844;28;20037;-60
2021/08/02 05:12:12;;;;;;;7.85;3.40;;;;;;;;;;5005497;28;20062;-60
2021/08/02 05:14:37;;;;;;;4.00;2.75;;;;;;;;;;5006549;28;20026;-60
2021/08/02 05:17:03;;;;;;;2.97;2.67;;;;;;;;;;5009532;28;20018;-60
2021/08/02 05:19:28;;;;;;;3.65;2.80;;;;;;;;;;5009491;28;20050;-61
2021/08/02 05:21:54;;;;;;;3.70;2.58;;;;;;;;;;5008760;28;20039;-60
2021/08/02 05:24:19;;;;;;;4.78;2.65;;;;;;;;;;5009522;28;20096;-60
2021/08/02 05:26:44;;;;;;;5.90;4.13;;;;;;;;;;5010464;28;20404;-60
2021/08/02 05:29:10;;;;;;;6.43;4.28;;;;;;;;;;5009842;28;20065;-60
2021/08/02 05:31:36;;;;;;;5.30;2.80;;;;;;;;;;5008996;28;20543;-60
2021/08/02 05:34:01;;;;;;;3.42;2.72;;;;;;;;;;5003689;28;20224;-60
2021/08/02 05:36:26;;;;;;;4.65;3.05;;;;;;;;;;5010734;28;20057;-60
2021/08/02 05:38:52;;;;;;;5.38;2.47;;;;;;;;;;5007504;28;20033;-60
2021/08/02 05:41:17;;;;;;;5.00;3.55;;;;;;;;;;5010201;28;20038;-60
2021/08/02 05:43:42;;;;;;;7.00;4.05;;;;;;;;;;5005065;28;20030;-60
2021/08/02 05:46:08;;;;;;;10.20;5.90;;;;;;;;;;5009894;28;20361;-61
2021/08/02 05:48:33;;;;;;;6.30;3.47;;;;;;;;;;5009433;28;20048;-60
2021/08/02 05:50:59;;;;;;;3.97;3.20;;;;;;;;;;5009493;28;20311;-61
2021/08/02 05:53:24;;;;;;;3.47;2.63;;;;;;;;;;5010041;28;20033;-60
2021/08/02 05:55:49;;;;;;;3.28;2.92;;;;;;;;;;5009987;28;20014;-60
2021/08/02 05:58:15;;;;;;;4.00;2.95;;;;;;;;;;5008998;28;20393;-60
2021/08/02 06:00:40;;;;;;;4.13;2.80;;;;;;;;;;5009423;28;20462;-60
2021/08/02 06:03:07;;;;;;;4.65;2.53;;;;;;;;;;5009212;28;20548;-61
2021/08/02 06:05:32;;;;;;;2.85;2.42;;;;;;;;;;5008259;28;20042;-61
2021/08/02 06:07:59;;;;;;;2.90;2.63;;;;;;;;;;5008543;28;20100;-60
2021/08/02 06:10:24;;;;;;;6.20;3.00;;;;;;;;;;5009094;28;20026;-60
2021/08/02 06:12:49;;;;;;;5.03;3.17;;;;;;;;;;5009217;28;20026;-60
2021/08/02 06:15:15;;;;;;;7.25;3.10;;;;;;;;;;5009571;28;20385;-60
2021/08/02 06:17:41;;;;;;;4.38;2.83;;;;;;;;;;5008812;28;20039;-60
2021/08/02 06:20:07;;;;;;;4.15;2.78;;;;;;;;;;5007962;28;20033;-60
2021/08/02 06:22:33;;;;;;;6.00;3.08;;;;;;;;;;5008397;28;20041;-60
2021/08/02 06:24:58;;;;;;;3.38;2.55;;;;;;;;;;5008504;28;20030;-59
2021/08/02 06:27:27;;;;;;;4.93;2.50;;;;;;;;;;5009356;28;20037;-59
2021/08/02 06:29:52;;;;;;;5.32;2.80;;;;;;;;;;5008432;28;20025;-59
2021/08/02 06:32:17;;;;;;;3.88;2.63;;;;;;;;;;5008369;28;20490;-60
2021/08/02 06:34:43;;;;;;;3.08;2.78;;;;;;;;;;5009290;28;20038;-60
2021/08/02 06:37:08;;;;;;;2.33;2.05;;;;;;;;;;5011016;28;20017;-60
2021/08/02 06:39:34;;;;;;;3.97;2.45;;;;;;;;;;5009461;28;20125;-59
2021/08/02 06:41:59;;;;;;;3.33;2.45;;;;;;;;;;5007844;28;20041;-61
2021/08/02 06:44:24;;;;;;;3.33;2.30;;;;;;;;;;5008173;28;20083;-60
2021/08/02 06:46:50;;;;;;;3.15;2.70;;;;;;;;;;5008652;28;20412;-61
2021/08/02 06:49:15;;;;;;;3.70;2.60;;;;;;;;;;5008518;28;20025;-61
2021/08/02 06:51:41;;;;;;;5.25;2.83;;;;;;;;;;5008460;28;20041;-61
2021/08/02 06:54:06;;;;;;;5.70;2.92;;;;;;;;;;5009158;28;20034;-62
2021/08/02 06:56:34;;;;;;;5.50;3.00;;;;;;;;;;5008130;28;20033;-63
2021/08/02 06:58:59;;;;;;;5.15;2.70;;;;;;;;;;5007424;28;20065;-61
2021/08/02 07:01:25;;;;;;;5.57;3.08;;;;;;;;;;5014924;28;20064;-62
2021/08/02 07:03:50;;;;;;;4.30;3.05;;;;;;;;;;5008954;28;20028;-61
2021/08/02 07:06:15;;;;;;;21.02;9.77;;;;;;;;;;5008151;28;20034;-61
2021/08/02 07:08:41;;;;;;;7.60;5.00;;;;;;;;;;5007993;28;20030;-60
2021/08/02 07:11:07;;;;;;;5.55;3.22;;;;;;;;;;5007504;28;20042;-60
2021/08/02 07:13:33;;;;;;;4.72;3.33;;;;;;;;;;5008417;28;20040;-60
2021/08/02 07:16:00;;;;;;;4.88;2.83;;;;;;;;;;5007982;28;20511;-60
2021/08/02 07:18:35;;;;;;;3.10;2.80;;;;;;;;;;5008530;28;20519;-60
2021/08/02 07:21:01;;;;;;;3.75;2.72;;;;;;;;;;5007615;28;20399;-60
2021/08/02 07:23:26;;;;;;;2.78;2.55;;;;;;;;;;5007172;28;20038;-60
2021/08/02 07:25:52;;;;;;;5.97;4.03;;;;;;;;;;5008703;28;20057;-59
2021/08/02 07:28:18;;;;;;;6.30;4.75;;;;;;;;;;5007964;28;20037;-60
2021/08/02 07:30:43;;;;;;;4.85;3.53;;;;;;;;;;5008458;28;20037;-60
2021/08/02 07:33:09;;;;;;;5.25;4.20;;;;;;;;;;5012548;28;20342;-60
2021/08/02 07:35:34;;;;;;;6.18;3.83;;;;;;;;;;5009118;28;20311;-60
2021/08/02 07:38:00;;;;;;;3.22;2.80;;;;;;;;;;5007370;28;20022;-60
2021/08/02 07:40:26;;;;;;;3.28;2.63;;;;;;;;;;5007076;28;20030;-61
2021/08/02 07:42:51;;;;;;;3.72;2.45;;;;;;;;;;5009694;28;20092;-61
2021/08/02 07:45:16;;;;;;;4.80;2.45;;;;;;;;;;5009932;28;20104;-61
2021/08/02 07:47:42;;;;;;;7.25;4.20;;;;;;;;;;5009979;28;20029;-60
2021/08/02 07:50:08;;;;;;;2.50;2.28;;;;;;;;;;5009901;28;20022;-61
2021/08/02 07:52:34;;;;;;;5.88;4.05;;;;;;;;;;5011583;28;20033;-60
2021/08/02 07:55:00;;;;;;;4.70;2.72;;;;;;;;;;5011907;28;20546;-60
2021/08/02 07:57:26;;;;;;;5.40;2.40;;;;;;;;;;5011727;28;20040;-61
2021/08/02 07:59:52;;;;;;;2.28;2.05;;;;;;;;;;5011437;28;20273;-60
2021/08/02 08:02:17;;;;;;;3.30;2.38;;;;;;;;;;5011157;28;20480;-60
2021/08/02 08:04:42;;;;;;;4.45;2.50;;;;;;;;;;5011096;28;20034;-60
2021/08/02 08:07:08;;;;;;;2.80;2.00;;;;;;;;;;5010313;28;20113;-60
2021/08/02 08:09:34;;;;;;;5.53;2.65;;;;;;;;;;5010007;28;20057;-60
2021/08/02 08:11:59;;;;;;;2.90;2.25;;;;;;;;;;5011177;28;20036;-60
2021/08/02 08:14:25;;;;;;;2.70;2.30;;;;;;;;;;5012054;28;20060;-60
2021/08/02 08:16:50;;;;;;;5.20;2.33;;;;;;;;;;5011409;28;20018;-60
2021/08/02 08:19:16;;;;;;;2.85;2.40;;;;;;;;;;5011296;28;20032;-60
2021/08/02 08:21:41;;;;;;;6.55;2.17;;;;;;;;;;5010134;28;20152;-61
2021/08/02 08:24:06;;;;;;;3.83;2.05;;;;;;;;;;5011849;28;20071;-61
2021/08/02 08:26:35;;;;;;;3.42;2.10;;;;;;;;;;5025660;28;20036;-61
2021/08/02 08:29:00;;;;;;;4.50;2.20;;;;;;;;;;5010045;28;20051;-61
2021/08/02 08:31:26;;;;;;;4.72;2.47;;;;;;;;;;5010677;28;20041;-60
2021/08/02 08:33:51;;;;;;;4.65;2.50;;;;;;;;;;5011312;28;20388;-61
2021/08/02 08:36:17;;;;;;;5.75;3.50;;;;;;;;;;5011278;28;20033;-61
2021/08/02 08:38:43;;;;;;;2.65;2.33;;;;;;;;;;5009591;28;20446;-61
2021/08/02 08:41:13;;;;;;;2.53;2.13;;;;;;;;;;5010348;28;20558;-61
2021/08/02 08:43:39;;;;;;;3.10;1.90;;;;;;;;;;5010115;28;20054;-61
2021/08/02 08:46:04;;;;;;;3.92;2.00;;;;;;;;;;5009677;28;20416;-61
2021/08/02 08:48:30;;;;;;;2.85;2.20;;;;;;;;;;5010326;28;20022;-61
2021/08/02 08:50:59;;;;;;;4.10;2.35;;;;;;;;;;5009337;28;20532;-61
2021/08/02 08:53:24;;;;;;;2.97;2.00;;;;;;;;;;5010057;28;20141;-61
2021/08/02 08:55:49;;;;;;;3.03;2.15;;;;;;;;;;5010284;28;20531;-61
2021/08/02 08:58:15;;;;;;;3.92;2.05;;;;;;;;;;5010738;28;20299;-61
2021/08/02 09:00:41;;;;;;;3.47;2.33;;;;;;;;;;5009783;28;20030;-61
2021/08/02 09:03:16;;;;;;;3.45;2.13;;;;;;;;;;5010324;28;20041;-61
2021/08/02 09:05:42;;;;;;;3.60;2.28;;;;;;;;;;5008973;28;20244;-61
2021/08/02 09:08:13;;;;;;;3.38;2.22;;;;;;;;;;5009020;28;20508;-61
2021/08/02 09:10:39;;;;;;;4.82;2.80;;;;;;;;;;5008189;28;20037;-61
2021/08/02 09:13:06;;;;;;;3.25;2.03;;;;;;;;;;5009424;28;20026;-61
2021/08/02 09:15:42;;;;;;;2.78;2.17;;;;;;;;;;5010148;28;20087;-61
2021/08/02 09:18:21;;;;;;;4.70;2.00;;;;;;;;;;5007091;28;20103;-61
2021/08/02 09:20:57;;;;;;;2.40;1.90;;;;;;;;;;5009559;28;20029;-61
2021/08/02 09:23:22;;;;;;;3.05;2.00;;;;;;;;;;5010659;28;20029;-61
2021/08/02 09:25:53;;;;;;;2.38;2.10;;;;;;;;;;5010597;28;20029;-61
2021/08/02 09:28:22;;;;;;;3.10;2.00;;;;;;;;;;5009929;28;20506;-61
2021/08/02 09:31:06;;;;;;;4.53;2.03;;;;;;;;;;5008994;28;20484;-62
2021/08/02 09:33:43;;;;;;;3.75;2.03;;;;;;;;;;5009941;28;20412;-61
2021/08/02 09:36:09;;;;;;;4.22;2.10;;;;;;;;;;5009339;28;20025;-61
2021/08/02 09:38:34;;;;;;;2.60;2.00;;;;;;;;;;5009641;28;20026;-61
2021/08/02 09:41:00;;;;;;;3.63;2.05;;;;;;;;;;5010106;28;20096;-61
2021/08/02 09:43:28;;;;;;;2.42;2.03;;;;;;;;;;5009970;28;20026;-61
2021/08/02 09:46:01;;;;;;;3.58;2.00;;;;;;;;;;5009452;28;20028;-61
2021/08/02 09:48:33;;;;;;;2.50;2.00;;;;;;;;;;5006964;28;20033;-61
2021/08/02 09:51:07;;;;;;;3.92;2.58;;;;;;;;;;5007761;28;20068;-61
2021/08/02 09:53:49;;;;;;;2.83;1.98;;;;;;;;;;5009823;28;20034;-61
2021/08/02 09:56:17;;;;;;;3.38;2.05;;;;;;;;;;5010138;28;20436;-60
2021/08/02 09:58:44;;;;;;;3.35;2.20;;;;;;;;;;5009367;28;20396;-61
2021/08/02 10:01:15;;;;;;;4.35;2.30;;;;;;;;;;5009279;28;20026;-61
2021/08/02 10:03:41;;;;;;;3.05;2.20;;;;;;;;;;5008885;28;20459;-62
2021/08/02 10:06:07;;;;;;;2.30;2.10;;;;;;;;;;5008233;28;20457;-61
2021/08/02 10:08:34;;;;;;;2.80;2.22;;;;;;;;;;5009573;28;20046;-60
2021/08/02 10:10:59;;;;;;;3.92;3.22;;;;;;;;;;5009770;28;20026;-60
2021/08/02 10:13:28;;;;;;;3.83;2.10;;;;;;;;;;5009434;28;20060;-60
2021/08/02 10:15:56;;;;;;;3.88;2.10;;;;;;;;;;5009717;28;20531;-60
2021/08/02 10:18:23;;;;;;;4.25;2.10;;;;;;;;;;5007521;28;20056;-60
2021/08/02 10:20:49;;;;;;;3.63;2.30;;;;;;;;;;5009381;28;20045;-60
2021/08/02 10:23:25;;;;;;;2.65;1.80;;;;;;;;;;5008352;28;20484;-61
2021/08/02 10:25:50;;;;;;;3.97;2.40;;;;;;;;;;5008148;28;20048;-61
2021/08/02 10:28:18;;;;;;;2.85;2.00;;;;;;;;;;5007758;28;20552;-61
2021/08/02 10:30:59;;;;;;;2.92;2.20;;;;;;;;;;5007985;28;20022;-61
2021/08/02 10:33:32;;;;;;;3.13;2.25;;;;;;;;;;5008967;28;20038;-61
2021/08/02 10:36:10;;;;;;;5.65;2.63;;;;;;;;;;5009230;28;20548;-62
2021/08/02 10:38:40;;;;;;;4.25;1.90;;;;;;;;;;5008474;28;20057;-62
2021/08/02 10:41:05;;;;;;;4.32;2.15;;;;;;;;;;5008986;28;20046;-61
2021/08/02 10:43:34;;;;;;;4.88;1.98;;;;;;;;;;5006301;28;20077;-61
2021/08/02 10:46:00;;;;;;;;;;;;;;;;;;5009226;28;20473;-61
2021/08/02 10:48:30;;;;;;;4.88;1.80;;;;;;;;;;5006263;28;19909;-62
2021/08/02 10:51:08;;;;;;;4.55;1.85;;;;;;;;;;5008662;28;20497;-62
2021/08/02 10:53:33;;;;;;;2.70;1.80;;;;;;;;;;5007988;28;20037;-61
2021/08/02 10:55:59;;;;;;;2.50;1.70;;;;;;;;;;5008918;28;20021;-61
2021/08/02 10:58:29;;;;;;;2.22;1.83;;;;;;;;;;5008159;28;20037;-62
2021/08/02 11:01:00;;;;;;;2.28;1.90;;;;;;;;;;5008621;28;20385;-61
2021/08/02 11:03:31;;;;;;;3.35;2.60;;;;;;;;;;5008528;28;20059;-61
2021/08/02 11:05:58;;;;;;;3.47;2.58;;;;;;;;;;5008401;28;20053;-61
2021/08/02 11:08:24;;;;;;;3.13;1.92;;;;;;;;;;5004090;28;20068;-60
2021/08/02 11:10:50;;;;;;;2.58;1.50;;;;;;;;;;5009135;28;20400;-61
2021/08/02 11:13:28;;;;;;;2.70;1.60;;;;;;;;;;5007642;28;20106;-61
2021/08/02 11:15:53;;;;;;;2.78;2.15;;;;;;;;;;5008939;28;20033;-61
2021/08/02 11:18:24;;;;;;;4.57;1.75;;;;;;;;;;5010186;28;20029;-61
2021/08/02 11:20:49;;;;;;;1.80;1.60;;;;;;;;;;5004735;28;20022;-61
2021/08/02 11:23:15;;;;;;;3.08;1.88;;;;;;;;;;5009921;28;20468;-61
2021/08/02 11:25:40;;;;;;;2.17;1.73;;;;;;;;;;5012602;28;20507;-62
2021/08/02 11:28:06;;;;;;;2.22;1.52;;;;;;;;;;5011367;28;20025;-61
2021/08/02 11:30:31;;;;;;;2.20;1.70;;;;;;;;;;5010317;28;20522;-62
2021/08/02 11:32:57;;;;;;;2.10;1.90;;;;;;;;;;5011764;28;20088;-63
2021/08/02 11:35:36;;;;;;;2.92;1.80;;;;;;;;;;5012697;28;20042;-61
2021/08/02 11:38:02;;;;;;;2.40;2.00;;;;;;;;;;5011496;28;20064;-61
2021/08/02 11:40:34;;;;;;;1.52;1.33;;;;;;;;;;5012354;28;20116;-62
2021/08/02 11:43:03;;;;;;;3.08;1.50;;;;;;;;;;5011847;28;20029;-62
2021/08/02 11:45:29;;;;;;;1.58;1.42;;;;;;;;;;5011535;28;20026;-61
2021/08/02 11:47:57;;;;;;;1.55;1.30;;;;;;;;;;5010328;28;20087;-61
2021/08/02 11:50:22;;;;;;;2.63;1.50;;;;;;;;;;5010882;28;20045;-61
2021/08/02 11:52:58;;;;;;;3.30;1.75;;;;;;;;;;5011167;28;20026;-62
2021/08/02 11:55:23;;;;;;;1.48;1.38;;;;;;;;;;5012192;28;20483;-61
2021/08/02 11:57:58;;;;;;;1.92;1.40;;;;;;;;;;5006557;28;20026;-61
2021/08/02 12:00:23;;;;;;;2.05;1.30;;;;;;;;;;5011842;28;20615;-62
2021/08/02 12:02:50;;;;;;;2.83;1.40;;;;;;;;;;5011235;28;20037;-62
2021/08/02 12:05:27;;;;;;;1.95;1.50;;;;;;;;;;5012273;28;20389;-62
2021/08/02 12:07:53;;;;;;;1.65;1.38;;;;;;;;;;5009675;28;20500;-62
2021/08/02 12:10:25;;;;;;;2.00;1.30;;;;;;;;;;5012185;28;20120;-62
2021/08/02 12:12:59;;;;;;;2.15;1.40;;;;;;;;;;5011292;28;20069;-62
2021/08/02 12:15:26;;;;;;;2.72;1.45;;;;;;;;;;5011656;28;20026;-62
2021/08/02 12:17:53;;;;;;;1.85;1.30;;;;;;;;;;5010695;28;20083;-61
2021/08/02 12:20:35;;;;;;;1.52;1.20;;;;;;;;;;5010848;28;20026;-62
2021/08/02 12:23:02;;;;;;;1.40;1.20;;;;;;;;;;5014659;28;20021;-62
2021/08/02 12:25:46;;;;;;;1.60;1.30;;;;;;;;;;5014195;28;20046;-61
2021/08/02 12:28:12;;;;;;;2.15;1.92;;;;;;;;;;5009672;28;20131;-62
2021/08/02 12:30:39;;;;;;;3.78;1.60;;;;;;;;;;5010574;28;20037;-62
2021/08/02 12:33:06;;;;;;;4.25;1.20;;;;;;;;;;5013412;28;20022;-62
2021/08/02 12:35:32;;;;;;;2.80;1.42;;;;;;;;;;5010345;28;20091;-62
2021/08/02 12:38:00;;;;;;;2.15;1.40;;;;;;;;;;5008281;28;20080;-62
2021/08/02 12:40:26;;;;;;;1.50;1.30;;;;;;;;;;5009636;28;20488;-62
2021/08/02 12:42:51;;;;;;;4.20;1.20;;;;;;;;;;5010754;28;20026;-62
2021/08/02 12:45:18;;;;;;;1.45;1.20;;;;;;;;;;5011276;28;20033;-62
2021/08/02 12:47:43;;;;;;;1.83;1.27;;;;;;;;;;5010204;28;20083;-62
2021/08/02 12:50:10;;;;;;;3.38;1.40;;;;;;;;;;5010443;28;20037;-62
2021/08/02 12:52:37;;;;;;;2.15;1.30;;;;;;;;;;5010665;28;20033;-63
2021/08/02 12:55:04;;;;;;;1.40;1.20;;;;;;;;;;5010227;28;20029;-62
2021/08/02 12:57:31;;;;;;;1.60;1.40;;;;;;;;;;5009371;28;20033;-63
2021/08/02 12:59:58;;;;;;;2.05;1.60;;;;;;;;;;5010383;28;20029;-62
2021/08/02 13:02:28;;;;;;;1.40;1.30;;;;;;;;;;5010143;28;20072;-62
2021/08/02 13:04:55;;;;;;;1.80;1.40;;;;;;;;;;5011062;28;20116;-62
2021/08/02 13:07:22;;;;;;;1.98;1.33;;;;;;;;;;5009276;28;20048;-62
2021/08/02 13:09:48;;;;;;;2.80;1.30;;;;;;;;;;5010203;28;20037;-62
2021/08/02 13:12:14;;;;;;;2.15;1.27;;;;;;;;;;5009341;28;20077;-62
2021/08/02 13:14:40;;;;;;;3.08;1.50;;;;;;;;;;5001067;28;20027;-62
2021/08/02 13:17:05;;;;;;;1.85;1.30;;;;;;;;;;5010191;28;20121;-62
2021/08/02 13:19:31;;;;;;;2.20;1.17;;;;;;;;;;5009723;28;20036;-62
2021/08/02 13:21:57;;;;;;;2.88;1.33;;;;;;;;;;5010169;28;20042;-62
2021/08/02 13:27:06;;;;;;;2.97;1.40;;;;;;;;;;5009020;28;20032;-63
2021/08/02 13:29:34;;;;;;;4.03;1.20;;;;;;;;;;5008968;28;20033;-62
2021/08/02 13:32:02;;;;;;;2.67;1.60;;;;;;;;;;5009650;28;20030;-63
2021/08/02 13:34:32;;;;;;;1.92;1.40;;;;;;;;;;5008872;28;20555;-63
2021/08/02 13:37:01;;;;;;;2.22;1.52;;;;;;;;;;5010263;28;20044;-63
2021/08/02 13:39:27;;;;;;;;;;;;;;;;;;5009839;28;20121;-63
2021/08/02 13:41:53;;;;;;;1.55;1.42;;;;;;;;;;5007120;28;20357;-62
2021/08/02 13:44:18;;;;;;;2.15;1.60;;;;;;;;;;5009675;28;20484;-62
2021/08/02 13:46:48;;;;;;;1.40;1.30;;;;;;;;;;5025353;28;20030;-63
2021/08/02 13:49:14;;;;;;;1.40;1.20;;;;;;;;;;5008540;28;20542;-63
2021/08/02 13:51:39;;;;;;;2.83;1.77;;;;;;;;;;5009361;28;20034;-63
2021/08/02 13:54:05;;;;;;;2.08;1.40;;;;;;;;;;5010120;28;20029;-62
2021/08/02 13:56:31;;;;;;;3.20;1.27;;;;;;;;;;5009702;28;20428;-63
2021/08/02 13:58:57;;;;;;;1.98;1.40;;;;;;;;;;5009212;28;20029;-62
2021/08/02 14:01:22;;;;;;;1.98;1.30;;;;;;;;;;5006704;28;20082;-62
2021/08/02 14:03:48;;;;;;;2.58;1.60;;;;;;;;;;5009697;28;20025;-62
2021/08/02 14:06:14;;;;;;;1.58;1.30;;;;;;;;;;5008931;28;20121;-62
2021/08/02 14:08:39;;;;;;;2.15;1.10;;;;;;;;;;5008811;28;20037;-63
2021/08/02 14:11:20;;;;;;;2.55;1.20;;;;;;;;;;5009649;28;20483;-62
2021/08/02 14:13:49;;;;;;;1.77;1.30;;;;;;;;;;5008413;28;20096;-63
2021/08/02 14:16:17;;;;;;;2.85;1.35;;;;;;;;;;5010451;28;20165;-62
2021/08/02 14:18:57;;;;;;;2.50;1.27;;;;;;;;;;5009082;28;20595;-63
2021/08/02 14:21:23;;;;;;;3.10;1.88;;;;;;;;;;5009544;28;20061;-63
2021/08/02 14:23:49;;;;;;;1.63;1.27;;;;;;;;;;5008278;28;20049;-62
2021/08/02 14:26:14;;;;;;;1.40;1.30;;;;;;;;;;5009914;28;20397;-62
2021/08/02 14:28:42;;;;;;;1.50;1.30;;;;;;;;;;5008636;28;20025;-63
2021/08/02 14:31:08;;;;;;;2.45;1.15;;;;;;;;;;5009189;28;20087;-62
2021/08/02 14:33:35;;;;;;;1.75;1.23;;;;;;;;;;5008828;28;20034;-62
2021/08/02 14:36:04;;;;;;;2.78;1.35;;;;;;;;;;5008141;28;20049;-62
2021/08/02 14:38:31;;;;;;;2.50;1.63;;;;;;;;;;5006392;28;20032;-63
2021/08/02 14:40:57;;;;;;;2.78;1.52;;;;;;;;;;5009459;28;20552;-63
2021/08/02 14:43:27;;;;;;;1.95;1.30;;;;;;;;;;5008291;28;20407;-62
2021/08/02 14:45:52;;;;;;;2.83;1.80;;;;;;;;;;5007927;28;20022;-63
2021/08/02 14:48:23;;;;;;;2.88;1.40;;;;;;;;;;5007903;28;20036;-62
2021/08/02 14:51:00;;;;;;;3.88;1.52;;;;;;;;;;5009052;28;20477;-62